• Join FlightAware (Why Join?)
  • Login
  • US Flag 
02:21AM EDT


 

Airport Tracker/Info


-or-


 

Live Flight TrackerFlight Track Log ✈ ASQ5874 ✈ 25-Nov-2013 ✈ KICT - KORD

Flight Track Log - Related Links

Times and Time Zones

All times are in EST time to prevent confusion due to time zone crossing. See the ASQ5874 flight status page for this flight to view local times or setup timezone preferences in your user account.

Time Position Orientation Groundspeed Altitude Reporting Facility
EST Latitude Longitude Course Direction KTS MPH feet Rate Location/Type
06:49AM 37.6400 -97.4436 65° Northeast 162 186 1,800  Level Kansas City Center
06:50AM 37.6381 -97.4467 231° Southwest 161 185 2,000 2,580 Climbing Kansas City Center
06:51AM 37.6297 -97.4903 256° West 179 206 4,700 2,340 Climbing Kansas City Center
06:51AM 37.6353 -97.4908 355° North 208 239 4,800 2,040 Climbing Kansas City Center
06:52AM 37.6858 -97.4842 North 235 270 6,800 2,280 Climbing Kansas City Center
06:52AM 37.6944 -97.4803 20° North 217 250 7,100 2,460 Climbing Kansas City Center
06:53AM 37.8855 -96.9823 25° Northeast  Level Estimated
06:53AM 37.7581 -97.4672 North 225 259 9,700  Level Kansas City Center
06:54AM 37.9441 -96.8692 15° North  Level Estimated
06:54AM 37.8269 -97.4511 10° North 251 289 11,300  Level Kansas City Center
06:55AM 38.0026 -96.7559 65° Northeast  Level Estimated
06:55AM 37.9086 -97.4325 10° North 296 341 12,400  Level Kansas City Center
06:56AM 38.0025 -97.4108 10° North 339 390 13,500 1,140 Climbing Kansas City Center
06:57AM 38.1036 -97.3864 11° North 367 422 14,800 1,440 Climbing Kansas City Center
06:58AM 38.2031 -97.3494 16° North 374 430 16,400 1,500 Climbing Kansas City Center
06:59AM 38.2992 -97.2992 22° Northeast 375 432 17,800 1,380 Climbing Kansas City Center
07:00AM 38.3964 -97.2492 22° Northeast 376 433 19,200 1,260 Climbing Kansas City Center
07:01AM 38.4681 -97.1489 48° Northeast 390 449 20,400 1,200 Climbing Kansas City Center
07:02AM 38.5136 -97.0211 65° Northeast 395 455 21,600 1,200 Climbing Kansas City Center
07:03AM 38.5592 -96.8906 66° East 401 461 22,900 1,260 Climbing Kansas City Center
07:04AM 38.6072 -96.7528 66° East 404 465 24,200 1,260 Climbing Kansas City Center
07:05AM 38.6594 -96.6036 66° East 411 473 25,500 1,200 Climbing Kansas City Center
07:06AM 38.7044 -96.4736 66° East 416 479 26,700 1,200 Climbing Kansas City Center
07:07AM 38.7489 -96.3422 67° East 420 483 27,900 1,140 Climbing Kansas City Center
07:08AM 38.7933 -96.2108 67° East 420 483 29,100 1,260 Climbing Kansas City Center
07:09AM 38.8461 -96.0581 66° East 420 483 30,500 1,200 Climbing Kansas City Center
07:10AM 38.8969 -95.9278 63° Northeast 425 489 31,600 1,020 Climbing Kansas City Center
07:11AM 38.9497 -95.7944 63° Northeast 434 499 32,600 1,080 Climbing Kansas City Center
07:12AM 39.0122 -95.6361 63° Northeast 446 513 33,800 1,080 Climbing Kansas City Center
07:13AM 39.0653 -95.5000 63° Northeast 446 513 34,800 540 Climbing Kansas City Center
07:14AM 39.1247 -95.3447 64° Northeast 457 526 35,000 60 Climbing Kansas City Center
07:15AM 39.1825 -95.1961 63° Northeast 483 556 35,000  Level Kansas City Center
07:16AM 39.2414 -95.0436 63° Northeast 494 568 35,000  Level Kansas City Center
07:17AM 39.3006 -94.8894 64° Northeast 502 578 35,000  Level Kansas City Center
07:18AM 39.3689 -94.7103 64° Northeast 500 575 35,000  Level Kansas City Center
07:19AM 39.4272 -94.5558 64° Northeast 498 573 35,000  Level Kansas City Center
07:20AM 39.4856 -94.4011 64° Northeast 500 575 35,000  Level Kansas City Center
07:21AM 39.5536 -94.2192 64° Northeast 501 577 35,000  Level Kansas City Center
07:22AM 39.6125 -94.0617 64° Northeast 508 585 35,000  Level Kansas City Center
07:23AM 39.6703 -93.9039 65° Northeast 507 583 35,000  Level Kansas City Center
07:24AM 39.7356 -93.7258 64° Northeast 506 582 35,000  Level Kansas City Center
07:25AM 39.7983 -93.5531 65° Northeast 507 583 35,000  Level Kansas City Center
07:26AM 39.8575 -93.3964 64° Northeast 493 567 35,000  Level Kansas City Center
07:27AM 39.9158 -93.2331 65° Northeast 498 573 35,000  Level Kansas City Center
07:28AM 39.9739 -93.0717 65° Northeast 497 572 35,000  Level Kansas City Center
07:29AM 40.0306 -92.9083 66° East 499 574 35,000  Level Kansas City Center
07:30AM 40.0844 -92.7583 65° Northeast 494 568 35,000  Level Kansas City Center
07:31AM 40.1469 -92.5739 66° East 495 570 35,000  Level Kansas City Center
07:32AM 40.2061 -92.4206 63° Northeast 494 568 35,000  Level Kansas City Center
07:33AM 40.2567 -92.2697 66° East 496 571 35,000  Level Kansas City Center
07:34AM 40.3242 -92.0747 66° East 496 571 35,000  Level Kansas City Center
07:35AM 40.3800 -91.9125 66° East 495 570 35,000  Level Kansas City Center
07:36AM 40.4350 -91.7486 66° East 495 570 35,000  Level Kansas City Center
07:37AM 40.4908 -91.5847 66° East 495 570 35,000  Level Kansas City Center
07:38AM 40.5472 -91.4197 66° East 497 572 35,000  Level Kansas City Center
07:39AM 40.6053 -91.2500 66° East 497 572 35,000 -180 Level Kansas City Center
07:40AM 40.6286 -91.1836 65° Northeast 500 575 34,800 -540 Descending Chicago Center
07:41AM 40.6853 -91.0206 65° Northeast 491 565 34,200 -720 Descending Chicago Center
07:42AM 40.7475 -90.8269 67° East 480 552 33,400 -720 Descending Chicago Center
07:43AM 40.8025 -90.6681 65° Northeast 476 548 32,800 -600 Descending Chicago Center
07:44AM 40.8564 -90.5069 66° East 476 548 32,200 -720 Descending Chicago Center
07:45AM 40.9125 -90.3411 66° East 489 563 31,400 -960 Descending Chicago Center
07:46AM 40.9714 -90.1614 66° East 502 578 30,300 -1,080 Descending Chicago Center
07:47AM 41.0253 -89.9986 66° East 502 578 29,300 -1,020 Descending Chicago Center
07:48AM 41.0814 -89.8275 66° East 502 578 28,300 -1,080 Descending Chicago Center
07:49AM 41.1378 -89.6558 66° East 504 580 27,200 -1,860 Descending Chicago Center
07:50AM 41.1969 -89.4944 64° Northeast 491 565 24,600 -2,640 Descending Chicago Center
07:51AM 41.2592 -89.3458 61° Northeast 468 539 21,800 -2,700 Descending Chicago Center
07:52AM 41.3183 -89.1978 62° Northeast 457 526 19,100 -2,460 Descending Chicago Center
07:53AM 41.3703 -89.0608 63° Northeast 429 494 16,800 -2,760 Descending Chicago Center
07:54AM 41.4347 -88.9019 62° Northeast 411 473 13,500 -2,400 Descending Chicago Center
07:55AM 41.4878 -88.7719 61° Northeast 399 459 11,900 -780 Descending Chicago Center
07:56AM 41.5400 -88.6364 63° Northeast 407 468 12,000  Climbing Chicago Center
07:57AM 41.6056 -88.5106 55° Northeast 409 471 11,900 -540 Descending Chicago Center
07:58AM 41.6831 -88.4000 47° Northeast 405 466 11,000 -840 Descending Chicago Center
07:59AM 41.7606 -88.2961 45° Northeast 398 458 10,300 -900 Descending Chicago Center
08:00AM 41.8300 -88.2172 40° Northeast 336 387 9,200 -960 Descending Chicago Center
08:01AM 41.8811 -88.1367 50° Northeast 298 343 8,400 -660 Descending Chicago Center
08:02AM 41.8850 -88.0469 87° East 250 288 7,900 -540 Descending Chicago Center
08:03AM 41.8833 -87.9628 91° East 231 266 7,300 -480 Descending Chicago Center
08:04AM 41.8739 -87.8700 98° East 215 247 7,000 -480 Descending Chicago Center
08:05AM 41.8692 -87.7886 94° East 215 247 6,400 -780 Descending Chicago Center
08:06AM 41.8694 -87.7050 90° East 222 255 5,500 -960 Descending Chicago Center
08:07AM 41.8889 -87.6333 70° East 218 251 4,500 -780 Descending Chicago Center
08:08AM 41.9417 -87.6339 360° North 208 239 4,000 -360 Descending Chicago Center
08:09AM 41.9656 -87.6822 304° West 175 201 3,800 -480 Descending Chicago Center
08:10AM 41.9647 -87.7333 269° West 151 174 3,100 -720 Descending Chicago Center
08:11AM 41.9656 -87.7828 271° West 141 162 2,400 -720 Descending Chicago Center
08:12AM 41.9661 -87.8336 271° West 128 147 1,700 -600 Descending Chicago Center
08:13AM 41.9656 -87.8708 269° West 122 140 1,200 -540 Descending Chicago Center